Time;durP1;ratioP1;P1;durP2;ratioP2;P2;SDS_P1;SDS_P2;PMS_P1;PMS_P2;Temp;Humidity;BMP_temperature;BMP_pressure;BME280_temperature;BME280_humidity;BME280_pressure;Samples;Min_cycle;Max_cycle;Signal;HPM_P1;HPM_P2
2023/10/22 00:01:11;;;;;;;6.87;5.47;;;;;;;;;;6206264;28;20187;-61
2023/10/22 00:04:12;;;;;;;6.20;5.47;;;;;;;;;;6214408;28;20212;-61
2023/10/22 00:07:14;;;;;;;7.43;5.83;;;;;;;;;;6213298;28;20248;-62
2023/10/22 00:10:15;;;;;;;6.13;5.53;;;;;;;;;;6218146;28;20194;-61
2023/10/22 00:13:16;;;;;;;7.93;5.53;;;;;;;;;;6216090;28;20188;-61
2023/10/22 00:16:17;;;;;;;8.67;5.93;;;;;;;;;;6210472;28;20223;-61
2023/10/22 00:19:18;;;;;;;10.30;6.40;;;;;;;;;;6228800;28;20179;-62
2023/10/22 00:22:19;;;;;;;5.80;5.27;;;;;;;;;;6213287;28;20213;-61
2023/10/22 00:25:21;;;;;;;9.73;5.77;;;;;;;;;;6207676;28;20239;-62
2023/10/22 00:28:22;;;;;;;6.20;5.37;;;;;;;;;;6216439;28;20290;-61
2023/10/22 00:31:23;;;;;;;7.67;4.77;;;13.70;99.90;;;;;;6203178;28;20195;-61
2023/10/22 00:34:23;;;;;;;8.80;4.83;;;13.50;99.90;;;;;;6194516;28;20209;-61
2023/10/22 00:37:24;;;;;;;7.23;5.50;;;13.50;99.90;;;;;;6197140;28;20189;-61
2023/10/22 00:40:25;;;;;;;6.93;5.23;;;13.50;99.90;;;;;;6194536;28;20189;-61
2023/10/22 00:43:25;;;;;;;5.73;5.07;;;13.50;99.90;;;;;;6196020;28;20218;-61
2023/10/22 00:46:26;;;;;;;7.27;5.20;;;13.40;99.90;;;;;;6184220;28;20207;-62
2023/10/22 00:49:27;;;;;;;8.30;5.20;;;13.30;99.90;;;;;;6216941;28;20190;-61
2023/10/22 00:52:28;;;;;;;6.90;5.73;;;13.40;99.90;;;;;;6214041;28;20281;-61
2023/10/22 00:55:30;;;;;;;8.50;5.20;;;13.30;99.90;;;;;;6194158;28;20222;-61
2023/10/22 00:58:33;;;;;;;5.87;5.07;;;13.30;99.90;;;;;;6203779;28;20187;-61
2023/10/22 01:01:34;;;;;;;6.17;4.43;;;13.30;99.90;;;;;;6208772;28;20211;-61
2023/10/22 01:04:34;;;;;;;8.37;4.37;;;13.30;99.90;;;;;;6192702;28;20190;-61
2023/10/22 01:07:35;;;;;;;9.73;4.87;;;13.30;99.90;;;;;;6208514;28;20190;-61
2023/10/22 01:10:36;;;;;;;6.10;4.90;;;13.30;99.90;;;;;;6213812;28;20201;-61
2023/10/22 01:13:38;;;;;;;7.03;4.93;;;13.30;99.90;;;;;;6202193;28;20199;-62
2023/10/22 01:16:48;;;;;;;12.23;5.60;;;13.30;99.90;;;;;;6196261;28;20244;-61
2023/10/22 01:19:50;;;;;;;9.43;6.03;;;13.40;99.90;;;;;;6210984;28;20191;-61
2023/10/22 01:22:51;;;;;;;6.17;5.63;;;13.40;99.90;;;;;;6233544;28;20194;-62
2023/10/22 01:25:51;;;;;;;10.30;6.47;;;13.50;99.90;;;;;;6199229;28;20295;-62
2023/10/22 01:28:52;;;;;;;7.20;6.50;;;13.50;99.90;;;;;;6186691;28;20191;-61
2023/10/22 01:31:53;;;;;;;9.77;5.70;;;13.50;99.90;;;;;;6206224;28;20196;-61
2023/10/22 01:34:53;;;;;;;6.17;5.57;;;13.40;99.90;;;;;;6213727;28;20215;-61
2023/10/22 01:37:54;;;;;;;5.97;4.87;;;13.50;99.90;;;;;;6213630;28;20209;-61
2023/10/22 01:40:55;;;;;;;11.17;5.50;;;13.40;99.90;;;;;;6209149;28;20185;-62
2023/10/22 01:43:56;;;;;;;8.27;5.53;;;13.40;99.90;;;;;;6193517;28;20188;-62
2023/10/22 01:46:57;;;;;;;8.87;5.87;;;13.30;99.90;;;;;;6214126;28;20190;-61
2023/10/22 01:49:58;;;;;;;9.43;6.40;;;13.30;99.90;;;;;;6188632;28;20190;-61
2023/10/22 01:52:58;;;;;;;9.77;6.43;;;13.30;99.90;;;;;;6216234;28;20186;-62
2023/10/22 01:55:59;;;;;;;8.23;6.23;;;13.30;99.90;;;;;;6210810;28;20314;-62
2023/10/22 01:59:00;;;;;;;9.77;6.10;;;13.30;99.90;;;;;;6193255;28;20246;-62
2023/10/22 02:02:00;;;;;;;11.00;7.10;;;13.30;99.90;;;;;;6192512;28;20186;-62
2023/10/22 02:05:01;;;;;;;9.63;6.07;;;13.30;99.90;;;;;;6189427;28;20200;-62
2023/10/22 02:08:03;;;;;;;9.07;6.30;;;13.30;99.90;;;;;;6196633;28;20279;-61
2023/10/22 02:11:03;;;;;;;10.53;6.53;;;13.30;99.90;;;;;;6207293;28;20192;-62
2023/10/22 02:14:04;;;;;;;10.37;6.53;;;13.30;99.90;;;;;;6204105;28;20202;-62
2023/10/22 02:17:05;;;;;;;7.43;5.40;;;13.30;99.90;;;;;;6185481;28;20183;-62
2023/10/22 02:20:08;;;;;;;7.80;5.93;;;13.20;99.90;;;;;;6226351;28;20240;-62
2023/10/22 02:23:09;;;;;;;8.67;6.30;;;13.20;99.90;;;;;;6210796;28;20179;-62
2023/10/22 02:26:10;;;;;;;8.33;5.90;;;13.20;99.90;;;;;;6213104;28;20254;-62
2023/10/22 02:29:12;;;;;;;6.70;5.50;;;13.20;99.90;;;;;;6213895;28;20203;-62
2023/10/22 02:32:12;;;;;;;7.97;6.67;;;13.20;99.90;;;;;;6207769;28;20202;-62
2023/10/22 02:35:14;;;;;;;9.00;5.77;;;;;;;;;;6191642;28;20206;-61
2023/10/22 02:38:16;;;;;;;8.87;6.03;;;;;;;;;;6200972;28;20184;-62
2023/10/22 02:41:16;;;;;;;7.43;5.73;;;13.10;99.90;;;;;;6204811;28;20190;-63
2023/10/22 02:44:17;;;;;;;8.97;5.40;;;13.00;99.90;;;;;;6181129;28;20270;-62
2023/10/22 02:47:18;;;;;;;6.33;5.20;;;13.00;99.90;;;;;;6178978;28;20195;-61
2023/10/22 02:50:18;;;;;;;8.47;5.67;;;13.00;99.90;;;;;;6211440;28;20194;-62
2023/10/22 02:53:19;;;;;;;8.43;6.30;;;13.00;99.90;;;;;;6208882;28;20201;-62
2023/10/22 02:56:21;;;;;;;6.53;5.90;;;13.00;99.90;;;;;;6206730;28;20211;-62
2023/10/22 02:59:22;;;;;;;8.17;6.10;;;13.00;99.90;;;;;;6213319;28;20233;-62
2023/10/22 03:02:22;;;;;;;7.70;5.07;;;13.00;99.90;;;;;;6188945;28;20195;-62
2023/10/22 03:05:23;;;;;;;7.13;4.73;;;13.00;99.90;;;;;;6187267;28;20290;-62
2023/10/22 03:08:24;;;;;;;9.80;4.70;;;12.90;99.90;;;;;;6207721;28;20210;-61
2023/10/22 03:11:25;;;;;;;7.67;5.37;;;12.90;99.90;;;;;;6210116;28;20198;-61
2023/10/22 03:14:26;;;;;;;6.53;5.37;;;12.90;99.90;;;;;;6183592;28;20272;-61
2023/10/22 03:17:27;;;;;;;7.20;4.90;;;13.00;99.90;;;;;;6188593;28;20194;-61
2023/10/22 03:20:32;;;;;;;5.30;4.63;;;13.00;99.90;;;;;;6222850;28;20194;-61
2023/10/22 03:23:34;;;;;;;7.87;5.20;;;13.00;99.90;;;;;;6207499;28;20192;-61
2023/10/22 03:26:37;;;;;;;7.63;5.30;;;;;;;;;;6204327;28;20311;-62
2023/10/22 03:29:38;;;;;;;7.87;5.33;;;;;;;;;;6221430;28;20199;-61
2023/10/22 03:32:39;;;;;;;5.90;5.27;;;;;;;;;;6207462;28;20203;-61
2023/10/22 03:35:40;;;;;;;6.60;5.37;;;;;;;;;;6214692;28;20210;-62
2023/10/22 03:38:41;;;;;;;9.33;5.10;;;;;;;;;;6200947;28;20214;-61
2023/10/22 03:41:43;;;;;;;7.43;5.17;;;;;;;;;;6222045;28;20187;-61
2023/10/22 03:44:44;;;;;;;11.60;5.70;;;;;;;;;;6201228;28;20204;-61
2023/10/22 03:47:45;;;;;;;6.63;5.10;;;;;;;;;;6206096;28;20282;-61
2023/10/22 03:50:46;;;;;;;8.27;5.57;;;;;;;;;;6211209;28;20209;-62
2023/10/22 03:53:48;;;;;;;6.50;5.30;;;;;;;;;;6217776;28;20199;-61
2023/10/22 03:56:49;;;;;;;8.67;5.43;;;;;;;;;;6195021;28;20222;-61
2023/10/22 03:59:50;;;;;;;7.23;5.67;;;;;;;;;;6201336;28;20200;-61
2023/10/22 04:02:52;;;;;;;7.43;5.23;;;;;;;;;;6227979;28;20210;-61
2023/10/22 04:05:59;;;;;;;6.40;4.80;;;;;;;;;;6203732;28;20240;-62
2023/10/22 04:09:00;;;;;;;7.23;4.70;;;;;;;;;;6202239;28;20245;-61
2023/10/22 04:12:01;;;;;;;6.03;5.40;;;;;;;;;;6204600;28;20207;-61
2023/10/22 04:15:03;;;;;;;7.37;4.70;;;;;;;;;;6204121;28;20219;-61
2023/10/22 04:18:04;;;;;;;6.77;4.57;;;;;;;;;;6211738;28;20194;-61
2023/10/22 04:21:12;;;;;;;8.10;4.50;;;;;;;;;;6223068;28;20285;-61
2023/10/22 04:24:13;;;;;;;5.00;4.57;;;;;;;;;;6221310;28;20203;-61
2023/10/22 04:27:14;;;;;;;7.00;4.17;;;;;;;;;;6188038;28;20227;-61
2023/10/22 04:30:15;;;;;;;5.83;4.30;;;;;;;;;;6198393;28;20185;-61
2023/10/22 04:33:16;;;;;;;6.77;4.40;;;;;;;;;;6189457;28;20192;-62
2023/10/22 04:36:21;;;;;;;7.33;4.23;;;;;;;;;;6185551;28;20239;-61
2023/10/22 04:39:24;;;;;;;6.13;4.40;;;;;;;;;;6202612;28;20274;-61
2023/10/22 04:42:25;;;;;;;5.93;4.10;;;;;;;;;;6218476;28;20268;-61
2023/10/22 04:45:27;;;;;;;6.60;4.53;;;;;;;;;;6218754;28;20249;-61
2023/10/22 04:48:28;;;;;;;5.93;4.30;;;;;;;;;;6200438;28;20192;-62
2023/10/22 04:51:29;;;;;;;7.27;3.70;;;;;;;;;;6200516;28;20209;-61
2023/10/22 04:54:30;;;;;;;4.53;4.07;;;;;;;;;;6206041;28;20222;-61
2023/10/22 04:57:31;;;;;;;4.10;3.70;;;;;;;;;;6200590;28;20196;-61
2023/10/22 05:00:32;;;;;;;8.60;4.17;;;;;;;;;;6201726;28;20192;-60
2023/10/22 05:03:33;;;;;;;5.00;3.10;;;;;;;;;;6203899;28;20199;-61
2023/10/22 05:06:34;;;;;;;7.57;3.37;;;;;;;;;;6210826;28;20198;-60
2023/10/22 05:09:35;;;;;;;4.37;3.33;;;;;;;;;;6203501;28;20292;-60
2023/10/22 05:12:36;;;;;;;3.20;2.93;;;;;;;;;;6198754;28;20195;-60
2023/10/22 05:15:37;;;;;;;4.27;3.17;;;;;;;;;;6199617;28;20215;-60
2023/10/22 05:18:39;;;;;;;4.30;2.90;;;;;;;;;;6190021;28;20415;-61
2023/10/22 05:21:40;;;;;;;4.37;3.03;;;;;;;;;;6218577;28;20644;-60
2023/10/22 05:24:41;;;;;;;4.37;2.83;;;;;;;;;;6189227;28;20283;-60
2023/10/22 05:27:42;;;;;;;4.60;2.90;;;;;;;;;;6200995;28;20229;-60
2023/10/22 05:30:43;;;;;;;4.23;2.67;;;;;;;;;;6212406;28;20190;-62
2023/10/22 05:33:44;;;;;;;2.50;2.30;;;;;;;;;;6209770;28;20202;-60
2023/10/22 05:36:45;;;;;;;3.13;2.57;;;;;;;;;;6215836;28;20264;-60
2023/10/22 05:39:46;;;;;;;3.57;2.50;;;;;;;;;;6210175;28;20190;-60
2023/10/22 05:42:47;;;;;;;3.13;2.33;;;;;;;;;;6202790;28;20206;-61
2023/10/22 05:45:56;;;;;;;2.57;2.37;;;;;;;;;;6206135;28;20195;-60
2023/10/22 05:48:57;;;;;;;3.57;2.80;;;;;;;;;;6230545;28;20225;-60
2023/10/22 05:51:58;;;;;;;2.63;2.43;;;;;;;;;;6223643;28;20191;-60
2023/10/22 05:55:00;;;;;;;3.47;2.47;;;;;;;;;;6207542;28;20241;-60
2023/10/22 05:58:01;;;;;;;3.40;2.43;;;;;;;;;;6216871;28;20187;-60
2023/10/22 06:01:02;;;;;;;2.87;1.93;;;;;;;;;;6230481;28;20199;-60
2023/10/22 06:04:03;;;;;;;2.20;2.00;;;;;;;;;;6230893;28;20191;-60
2023/10/22 06:07:05;;;;;;;2.23;1.90;;;;;;;;;;6209585;28;20194;-61
2023/10/22 06:10:10;;;;;;;3.60;1.90;;;;;;;;;;6213835;28;20227;-61
2023/10/22 06:13:11;;;;;;;4.53;2.20;;;;;;;;;;6207523;28;20210;-62
2023/10/22 06:16:12;;;;;;;2.27;1.90;;;;;;;;;;6209357;28;20222;-61
2023/10/22 06:19:13;;;;;;;2.50;1.40;;;;;;;;;;6206768;28;20201;-61
2023/10/22 06:22:14;;;;;;;2.50;1.60;;;;;;;;;;6221909;28;20194;-62
2023/10/22 06:25:15;;;;;;;2.27;1.43;;;;;;;;;;6201355;28;20239;-62
2023/10/22 06:28:17;;;;;;;1.70;1.43;;;;;;;;;;6212031;28;20199;-62
2023/10/22 06:31:18;;;;;;;1.60;1.37;;;;;;;;;;6215274;28;20198;-61
2023/10/22 06:34:19;;;;;;;2.17;1.47;;;;;;;;;;6221362;28;20360;-61
2023/10/22 06:37:20;;;;;;;2.37;1.70;;;;;;;;;;6212890;28;20254;-61
2023/10/22 06:40:21;;;;;;;3.77;1.57;;;;;;;;;;6202583;28;20232;-61
2023/10/22 06:43:23;;;;;;;1.47;1.10;;;;;;;;;;6227441;28;20246;-62
2023/10/22 06:46:24;;;;;;;1.20;0.87;;;;;;;;;;6206079;28;20190;-59
2023/10/22 06:49:25;;;;;;;2.93;2.17;;;;;;;;;;6215409;28;20683;-60
2023/10/22 06:52:26;;;;;;;1.80;0.90;;;;;;;;;;6213864;28;20237;-61
2023/10/22 06:55:27;;;;;;;1.03;0.97;;;;;;;;;;6206009;28;20254;-61
2023/10/22 06:58:28;;;;;;;1.00;0.90;;;;;;;;;;6210142;28;20265;-60
2023/10/22 07:01:29;;;;;;;1.47;0.87;;;;;;;;;;6200785;28;20282;-60
2023/10/22 07:04:31;;;;;;;1.17;0.80;;;;;;;;;;6204115;28;20206;-60
2023/10/22 07:07:32;;;;;;;1.23;0.70;;;;;;;;;;6206206;28;20195;-60
2023/10/22 07:10:33;;;;;;;1.47;0.70;;;;;;;;;;6216553;28;20198;-60
2023/10/22 07:13:34;;;;;;;0.63;0.63;;;;;;;;;;6227097;28;20279;-61
2023/10/22 07:16:35;;;;;;;2.43;0.80;;;;;;;;;;6204937;28;20253;-60
2023/10/22 07:19:36;;;;;;;0.87;0.80;;;;;;;;;;6210136;28;20277;-61
2023/10/22 07:22:37;;;;;;;0.70;0.70;;;;;;;;;;6221487;28;20190;-61
2023/10/22 07:25:38;;;;;;;2.70;0.80;;;;;;;;;;6212238;28;20237;-60
2023/10/22 07:28:41;;;;;;;1.00;0.70;;;;;;;;;;6211831;28;20203;-60
2023/10/22 07:31:47;;;;;;;0.90;0.77;;;;;;;;;;6207503;28;20187;-60
2023/10/22 07:34:48;;;;;;;1.67;0.53;;;;;;;;;;6209417;28;20218;-61
2023/10/22 07:37:49;;;;;;;0.50;0.50;;;;;;;;;;6227945;28;20195;-60
2023/10/22 07:40:55;;;;;;;0.47;0.47;;;;;;;;;;6197903;28;20230;-60
2023/10/22 07:43:56;;;;;;;1.07;0.70;;;;;;;;;;6215943;28;20195;-60
2023/10/22 07:46:58;;;;;;;0.70;0.57;;;;;;;;;;6222246;28;20196;-61
2023/10/22 07:49:59;;;;;;;1.27;0.80;;;;;;;;;;6204429;28;20198;-61
2023/10/22 07:53:00;;;;;;;3.00;2.00;;;;;;;;;;6220378;28;20269;-61
2023/10/22 07:56:01;;;;;;;2.47;1.63;;;;;;;;;;6205490;28;20306;-62
2023/10/22 07:59:02;;;;;;;1.70;1.57;;;;;;;;;;6220824;28;20188;-61
2023/10/22 08:02:03;;;;;;;1.13;1.03;;;;;;;;;;6208492;28;20249;-61
2023/10/22 08:05:05;;;;;;;0.50;0.50;;;;;;;;;;6206486;28;20195;-61
2023/10/22 08:08:06;;;;;;;0.70;0.50;;;;;;;;;;6203792;28;20191;-61
2023/10/22 08:11:07;;;;;;;2.17;0.57;;;;;;;;;;6211608;28;20194;-61
2023/10/22 08:14:08;;;;;;;0.60;0.60;;;;;;;;;;6219687;28;20202;-61
2023/10/22 08:17:09;;;;;;;1.10;1.00;;;;;;;;;;6210416;28;20222;-61
2023/10/22 08:20:10;;;;;;;0.50;0.50;;;;;;;;;;6212047;28;20198;-61
2023/10/22 08:23:11;;;;;;;0.93;0.77;;;;;;;;;;6218957;28;20201;-61
2023/10/22 08:26:12;;;;;;;0.50;0.40;;;;;;;;;;6225699;28;20270;-61
2023/10/22 08:29:13;;;;;;;0.50;0.50;;;;;;;;;;6210982;28;20198;-61
2023/10/22 08:32:14;;;;;;;0.30;0.30;;;;;;;;;;6207236;28;20197;-61
2023/10/22 08:35:15;;;;;;;0.37;0.30;;;;;;;;;;6205927;28;20312;-62
2023/10/22 08:38:16;;;;;;;1.03;0.30;;;;;;;;;;6232259;28;20195;-61
2023/10/22 08:41:20;;;;;;;0.57;0.30;;;;;;;;;;6211759;28;20187;-62
2023/10/22 08:44:21;;;;;;;0.40;0.30;;;;;;;;;;6224063;28;20192;-61
2023/10/22 08:47:23;;;;;;;0.53;0.23;;;;;;;;;;6200477;28;20195;-61
2023/10/22 08:50:25;;;;;;;0.20;0.20;;;;;;;;;;6209267;28;20290;-61
2023/10/22 08:53:27;;;;;;;0.50;0.50;;;;;;;;;;6229761;28;20182;-61
2023/10/22 08:56:29;;;;;;;0.67;0.67;;;;;;;;;;6212688;28;20219;-61
2023/10/22 08:59:30;;;;;;;0.20;0.20;;;;;;;;;;6208786;28;20195;-61
2023/10/22 09:02:31;;;;;;;0.30;0.30;;;;;;;;;;6233049;28;20187;-61
2023/10/22 09:05:32;;;;;;;1.20;0.30;;;;;;;;;;6205395;28;20198;-61
2023/10/22 09:08:41;;;;;;;0.63;0.50;;;;;;;;;;6200457;28;20196;-62
2023/10/22 09:11:54;;;;;;;2.20;0.50;;;;;;;;;;6225291;28;20192;-61
2023/10/22 09:14:57;;;;;;;1.80;0.30;;;;;;;;;;6214924;28;20221;-62
2023/10/22 09:18:02;;;;;;;0.27;0.27;;;;;;;;;;6216159;28;20180;-62
2023/10/22 09:21:07;;;;;;;0.40;0.27;;;;;;;;;;6217407;28;20196;-61
2023/10/22 09:24:08;;;;;;;0.30;0.27;;;;;;;;;;6225711;28;20179;-62
2023/10/22 09:27:09;;;;;;;0.27;0.27;;;;;;;;;;6203562;28;20266;-61
2023/10/22 09:30:11;;;;;;;0.60;0.40;;;;;;;;;;6204232;28;20200;-60
2023/10/22 09:33:17;;;;;;;1.33;0.50;;;;;;;;;;6196770;28;20207;-61
2023/10/22 09:36:24;;;;;;;0.40;0.40;;;;;;;;;;6216916;28;20211;-61
2023/10/22 09:39:36;;;;;;;0.87;0.23;;;;;;;;;;6193405;28;20197;-61
2023/10/22 09:42:37;;;;;;;0.10;0.10;;;;;;;;;;6213410;28;20188;-61
2023/10/22 09:45:38;;;;;;;0.33;0.20;;;;;;;;;;6197693;28;20196;-60
2023/10/22 09:48:41;;;;;;;1.33;0.30;;;;;;;;;;6212055;28;20183;-61
2023/10/22 09:51:42;;;;;;;0.20;0.20;;;;;;;;;;6221659;28;20223;-61
2023/10/22 09:54:44;;;;;;;0.10;0.10;;;;;;;;;;6205669;28;20278;-61
2023/10/22 09:57:46;;;;;;;0.40;0.40;;;;;;;;;;6206489;28;20219;-61
2023/10/22 10:00:48;;;;;;;0.57;0.20;;;;;;;;;;6224207;28;20188;-61
2023/10/22 10:03:49;;;;;;;0.50;0.40;;;;;;;;;;6221353;28;20203;-62
2023/10/22 10:06:51;;;;;;;0.80;0.30;;;;;;;;;;6205289;28;20274;-62
2023/10/22 10:09:52;;;;;;;0.77;0.77;;;;;;;;;;6218050;28;20199;-61
2023/10/22 10:12:53;;;;;;;0.37;0.30;;;;;;;;;;6198667;28;20207;-61
2023/10/22 10:16:01;;;;;;;0.33;0.33;;;;;;;;;;6201555;28;20216;-61
2023/10/22 10:19:02;;;;;;;0.20;0.20;;;;;;;;;;6225609;28;20223;-61
2023/10/22 10:22:04;;;;;;;0.70;0.70;;;;;;;;;;6219909;28;20198;-61
2023/10/22 10:25:24;;;;;;;0.50;0.30;;;;;;;;;;6224777;28;20227;-61
2023/10/22 10:28:38;;;;;;;0.90;0.50;;;;;;;;;;6223152;28;20201;-61
2023/10/22 10:31:39;;;;;;;0.10;0.10;;;;;;;;;;6227274;28;20239;-62
2023/10/22 10:35:01;;;;;;;0.57;0.30;;;;;;;;;;6212472;28;20223;-62
2023/10/22 10:38:15;;;;;;;1.00;0.60;;;;;;;;;;6227233;28;20275;-61
2023/10/22 10:41:36;;;;;;;1.20;1.10;;;;;;;;;;6211746;28;20188;-62
2023/10/22 10:44:58;;;;;;;1.40;1.30;;;;;;;;;;6231565;28;20197;-62
2023/10/22 10:47:59;;;;;;;0.87;0.80;;;;;;;;;;6231593;28;20199;-61
2023/10/22 10:51:17;;;;;;;1.50;1.20;;;;;;;;;;6210788;28;20253;-60
2023/10/22 10:54:18;;;;;;;0.60;0.30;;;;;;;;;;6209817;28;20212;-62
2023/10/22 10:57:32;;;;;;;1.77;0.87;;;;;;;;;;6211947;28;20220;-59
2023/10/22 11:00:33;;;;;;;0.30;0.27;;;;;;;;;;6216233;28;20188;-60
2023/10/22 11:03:34;;;;;;;1.47;0.90;;;;;;;;;;6213487;28;20194;-60
2023/10/22 11:06:35;;;;;;;0.30;0.30;;;;;;;;;;6222945;28;20194;-60
2023/10/22 11:09:38;;;;;;;0.30;0.30;;;;;;;;;;6196238;28;20213;-59
2023/10/22 11:12:39;;;;;;;0.30;0.30;;;13.10;99.90;;;;;;6207113;28;20198;-60
2023/10/22 11:15:40;;;;;;;0.30;0.30;;;17.30;53.60;;;;;;6223994;28;20246;-60
2023/10/22 11:19:02;;;;;;;0.50;0.30;;;17.30;53.60;;;;;;6210759;28;20282;-60
2023/10/22 11:22:03;;;;;;;0.43;0.33;;;17.40;54.10;;;;;;6226415;28;20199;-61
2023/10/22 11:25:07;;;;;;;0.50;0.20;;;17.40;54.70;;;;;;6200038;28;20222;-60
2023/10/22 11:28:08;;;;;;;1.47;1.07;;;17.50;55.20;;;;;;6221934;28;20275;-60
2023/10/22 11:31:24;;;;;;;1.60;1.07;;;17.50;54.90;;;;;;6224616;28;20199;-60
2023/10/22 11:34:26;;;;;;;0.60;0.57;;;;;;;;;;6201160;28;20199;-61
2023/10/22 11:37:36;;;;;;;0.20;0.20;;;;;;;;;;6220882;28;20187;-61
2023/10/22 11:40:38;;;;;;;0.60;0.40;;;;;;;;;;6223077;28;20231;-61
2023/10/22 11:43:43;;;;;;;0.30;0.20;;;;;;;;;;6204661;28;20193;-62
2023/10/22 11:46:44;;;;;;;0.97;0.30;;;;;;;;;;6205955;28;20223;-63
2023/10/22 11:49:48;;;;;;;0.20;0.20;;;;;;;;;;6209117;28;20324;-63
2023/10/22 11:52:50;;;;;;;0.30;0.30;;;;;;;;;;6219428;28;20247;-61
2023/10/22 11:55:51;;;;;;;0.73;0.10;;;;;;;;;;6213404;28;20226;-62
2023/10/22 11:58:55;;;;;;;0.27;0.13;;;;;;;;;;6202047;28;20194;-62
2023/10/22 12:01:56;;;;;;;0.20;0.20;;;;;;;;;;6210400;28;20286;-62
2023/10/22 12:04:57;;;;;;;0.10;0.10;;;;;;;;;;6221478;28;20224;-61
2023/10/22 12:07:58;;;;;;;1.53;0.30;;;;;;;;;;6209757;28;20190;-62
2023/10/22 12:10:59;;;;;;;0.60;0.37;;;;;;;;;;6215832;28;20190;-62
2023/10/22 12:14:00;;;;;;;0.20;0.20;;;;;;;;;;6216652;28;20251;-61
2023/10/22 12:17:01;;;;;;;1.43;0.57;;;;;;;;;;6203758;28;20229;-62
2023/10/22 12:20:02;;;;;;;0.40;0.40;;;20.50;51.30;;;;;;6215440;28;20186;-61
2023/10/22 12:23:03;;;;;;;0.10;0.10;;;20.30;50.20;;;;;;6200775;28;20226;-62
2023/10/22 12:26:08;;;;;;;0.47;0.30;;;;;;;;;;6194338;28;20246;-62
2023/10/22 12:29:10;;;;;;;1.50;0.20;;;;;;;;;;6221303;28;20199;-62
2023/10/22 12:32:10;;;;;;;0.40;0.20;;;20.60;51.60;;;;;;6205600;28;20249;-62
2023/10/22 12:35:12;;;;;;;0.30;0.30;;;20.50;52.10;;;;;;6206672;28;20219;-62
2023/10/22 12:38:13;;;;;;;0.60;0.30;;;20.30;52.80;;;;;;6204793;28;20192;-61
2023/10/22 12:41:14;;;;;;;0.87;0.37;;;20.00;53.50;;;;;;6197242;28;20241;-62
2023/10/22 12:44:14;;;;;;;0.10;0.10;;;19.90;55.20;;;;;;6191899;28;20282;-61
2023/10/22 12:47:15;;;;;;;0.70;0.33;;;19.70;56.80;;;;;;6178213;28;20203;-61
2023/10/22 12:50:16;;;;;;;0.30;0.30;;;19.70;57.90;;;;;;6198679;28;20199;-61
2023/10/22 12:53:17;;;;;;;0.90;0.30;;;19.60;58.40;;;;;;6196584;28;20213;-61
2023/10/22 12:56:18;;;;;;;1.03;0.40;;;19.50;56.00;;;;;;6184569;28;20222;-62
2023/10/22 12:59:18;;;;;;;0.30;0.30;;;19.40;57.40;;;;;;6208935;28;20190;-61
2023/10/22 13:02:19;;;;;;;2.53;0.50;;;19.50;58.80;;;;;;6207079;28;20201;-61
2023/10/22 13:05:20;;;;;;;0.77;0.43;;;19.70;58.80;;;;;;6194969;28;20206;-61
2023/10/22 13:08:21;;;;;;;0.57;0.33;;;;;;;;;;6207563;28;20202;-62
2023/10/22 13:11:22;;;;;;;1.03;0.40;;;20.50;55.40;;;;;;6219276;28;20255;-62
2023/10/22 13:14:24;;;;;;;1.30;1.20;;;20.20;50.90;;;;;;6191435;28;20186;-61
2023/10/22 13:17:24;;;;;;;1.37;0.30;;;20.00;50.50;;;;;;6189245;28;20284;-61
2023/10/22 13:20:25;;;;;;;0.60;0.60;;;19.80;55.50;;;;;;6198151;28;20196;-61
2023/10/22 13:23:27;;;;;;;1.13;0.50;;;19.70;58.00;;;;;;6200998;28;20202;-61
2023/10/22 13:26:28;;;;;;;0.30;0.30;;;19.70;56.20;;;;;;6184124;28;20271;-61
2023/10/22 13:29:28;;;;;;;0.47;0.47;;;19.70;57.60;;;;;;6193911;28;20189;-61
2023/10/22 13:32:29;;;;;;;0.27;0.27;;;19.60;59.70;;;;;;6181849;28;20195;-61
2023/10/22 13:35:31;;;;;;;1.60;0.50;;;;;;;;;;6182819;28;20226;-61
2023/10/22 13:38:32;;;;;;;0.50;0.50;;;;;;;;;;6202278;28;20199;-61
2023/10/22 13:41:33;;;;;;;1.53;0.70;;;;;;;;;;6214054;28;20218;-61
2023/10/22 13:44:34;;;;;;;0.43;0.43;;;;;;;;;;6201544;28;20286;-62
2023/10/22 13:47:36;;;;;;;1.17;0.60;;;;;;;;;;6191417;28;20200;-61
2023/10/22 13:50:37;;;;;;;0.30;0.30;;;;;;;;;;6221794;28;20198;-62
2023/10/22 13:53:38;;;;;;;2.80;1.77;;;;;;;;;;6235109;28;20274;-62
2023/10/22 13:56:39;;;;;;;1.70;1.60;;;;;;;;;;6206112;28;20207;-61
2023/10/22 13:59:40;;;;;;;0.63;0.60;;;;;;;;;;6200951;28;20209;-62
2023/10/22 14:02:41;;;;;;;0.57;0.50;;;;;;;;;;6191496;28;20203;-62
2023/10/22 14:05:52;;;;;;;1.73;0.73;;;;;;;;;;6199081;28;20203;-62
2023/10/22 14:08:53;;;;;;;0.50;0.50;;;;;;;;;;6209576;28;20200;-62
2023/10/22 14:11:54;;;;;;;2.10;0.50;;;;;;;;;;6211093;28;20195;-62
2023/10/22 14:14:55;;;;;;;0.50;0.50;;;;;;;;;;6206729;28;20214;-61
2023/10/22 14:17:56;;;;;;;1.20;0.60;;;;;;;;;;6195689;28;20198;-62
2023/10/22 14:20:57;;;;;;;0.67;0.47;;;;;;;;;;6193077;28;20185;-62
2023/10/22 14:23:58;;;;;;;0.50;0.50;;;;;;;;;;6201263;28;20296;-61
2023/10/22 14:26:59;;;;;;;0.40;0.40;;;;;;;;;;6210025;28;20247;-62
2023/10/22 14:30:00;;;;;;;0.97;0.53;;;;;;;;;;6201200;28;20206;-62
2023/10/22 14:33:01;;;;;;;0.40;0.40;;;;;;;;;;6197938;28;20275;-62
2023/10/22 14:36:05;;;;;;;0.70;0.50;;;19.50;60.30;;;;;;6207653;28;20215;-62
2023/10/22 14:39:06;;;;;;;1.50;0.80;;;;;;;;;;6219080;28;20195;-62
2023/10/22 14:42:06;;;;;;;1.23;1.00;;;24.00;50.00;;;;;;6197551;28;20194;-61
2023/10/22 14:45:08;;;;;;;1.50;1.17;;;18.90;64.70;;;;;;6187626;28;20259;-61
2023/10/22 14:48:10;;;;;;;1.37;0.93;;;18.70;65.80;;;;;;6188484;28;20199;-61
2023/10/22 14:51:11;;;;;;;1.07;0.80;;;;;;;;;;6206833;28;20207;-61
2023/10/22 14:54:12;;;;;;;1.33;0.70;;;;;;;;;;6201195;28;20254;-61
2023/10/22 14:57:14;;;;;;;0.60;0.60;;;;;;;;;;6197088;28;20291;-61
2023/10/22 15:00:16;;;;;;;0.97;0.60;;;18.50;66.40;;;;;;6199201;28;20199;-61
2023/10/22 15:03:16;;;;;;;2.07;0.60;;;17.80;68.70;;;;;;6198282;28;20253;-61
2023/10/22 15:06:18;;;;;;;0.40;0.40;;;;;;;;;;6191310;28;20195;-61
2023/10/22 15:09:19;;;;;;;2.13;0.50;;;;;;;;;;6201721;28;20249;-61
2023/10/22 15:12:20;;;;;;;1.20;0.77;;;;;;;;;;6203980;28;20204;-61
2023/10/22 15:15:21;;;;;;;2.07;0.70;;;;;;;;;;6207135;28;20219;-61
2023/10/22 15:18:22;;;;;;;1.87;1.10;;;;;;;;;;6203512;28;20200;-61
2023/10/22 15:21:25;;;;;;;1.57;1.07;;;;;;;;;;6205454;28;20199;-67
2023/10/22 15:24:26;;;;;;;1.27;1.17;;;;;;;;;;6194066;28;20196;-66
2023/10/22 15:27:27;;;;;;;1.53;1.33;;;;;;;;;;6195116;28;20304;-61
2023/10/22 15:30:32;;;;;;;1.77;1.57;;;;;;;;;;6205363;28;20200;-61
2023/10/22 15:33:34;;;;;;;6.80;2.53;;;;;;;;;;6212163;28;20223;-61
2023/10/22 15:36:35;;;;;;;4.87;2.17;;;;;;;;;;6223737;28;20212;-61
2023/10/22 15:39:36;;;;;;;1.40;1.30;;;;;;;;;;6215763;28;20192;-61
2023/10/22 15:42:39;;;;;;;3.27;1.20;;;;;;;;;;6195548;28;20287;-61
2023/10/22 15:45:44;;;;;;;1.40;1.30;;;;;;;;;;6202716;28;20188;-60
2023/10/22 15:48:46;;;;;;;2.30;1.13;;;;;;;;;;6209992;28;20211;-61
2023/10/22 15:51:47;;;;;;;2.17;1.30;;;;;;;;;;6191107;28;20226;-61
2023/10/22 15:54:49;;;;;;;3.00;1.30;;;;;;;;;;6187143;28;20208;-63
2023/10/22 15:57:51;;;;;;;3.27;1.63;;;;;;;;;;6200260;28;20198;-61
2023/10/22 16:00:52;;;;;;;4.57;1.50;;;;;;;;;;6222326;28;20230;-61
2023/10/22 16:03:54;;;;;;;2.00;1.80;;;;;;;;;;6220828;28;20215;-61
2023/10/22 16:06:55;;;;;;;2.47;1.30;;;;;;;;;;6211270;28;20274;-61
2023/10/22 16:09:58;;;;;;;1.20;1.10;;;;;;;;;;6205722;28;20225;-61
2023/10/22 16:12:59;;;;;;;1.10;1.00;;;;;;;;;;6219196;28;20206;-61
2023/10/22 16:16:00;;;;;;;2.40;1.00;;;;;;;;;;6201999;28;20226;-61
2023/10/22 16:19:01;;;;;;;1.60;1.20;;;;;;;;;;6203365;28;20291;-61
2023/10/22 16:22:04;;;;;;;0.80;0.80;;;;;;;;;;6205710;28;20203;-61
2023/10/22 16:25:06;;;;;;;2.60;1.10;;;;;;;;;;6214254;28;20235;-60
2023/10/22 16:28:07;;;;;;;2.07;1.40;;;;;;;;;;6199013;28;20208;-60
2023/10/22 16:31:08;;;;;;;1.90;1.03;;;;;;;;;;6204995;28;20261;-61
2023/10/22 16:34:10;;;;;;;3.07;1.80;;;;;;;;;;6197054;28;20220;-61
2023/10/22 16:37:11;;;;;;;5.23;3.70;;;;;;;;;;6220457;28;20227;-61
2023/10/22 16:40:12;;;;;;;5.50;4.03;;;;;;;;;;6218011;28;20290;-61
2023/10/22 16:43:14;;;;;;;3.93;2.73;;;;;;;;;;6212691;28;20199;-61
2023/10/22 16:46:16;;;;;;;3.00;2.33;;;;;;;;;;6213652;28;20285;-61
2023/10/22 16:49:17;;;;;;;3.63;2.30;;;;;;;;;;6223722;28;20188;-61
2023/10/22 16:52:19;;;;;;;2.23;1.70;;;;;;;;;;6232297;28;20184;-62
2023/10/22 16:55:20;;;;;;;3.30;2.67;;;;;;;;;;6211626;28;20252;-61
2023/10/22 16:58:21;;;;;;;5.50;2.73;;;;;;;;;;6206077;28;20204;-61
2023/10/22 17:01:22;;;;;;;5.90;3.17;;;;;;;;;;6209660;28;20194;-62
2023/10/22 17:04:24;;;;;;;3.03;2.00;;;;;;;;;;6210273;28;20191;-62
2023/10/22 17:07:25;;;;;;;2.30;1.70;;;;;;;;;;6218811;28;20206;-62
2023/10/22 17:10:27;;;;;;;5.40;3.00;;;;;;;;;;6215946;28;20196;-61
2023/10/22 17:13:28;;;;;;;3.95;2.70;;;;;;;;;;6204038;28;20738;-61
2023/10/22 17:16:30;;;;;;;5.33;4.73;;;;;;;;;;6211698;28;20239;-62
2023/10/22 17:19:31;;;;;;;7.10;6.13;;;;;;;;;;6205434;28;20183;-61
2023/10/22 17:22:33;;;;;;;4.40;3.10;;;;;;;;;;6210123;28;20279;-61
2023/10/22 17:25:45;;;;;;;2.27;2.00;;;;;;;;;;6206939;28;20256;-60
2023/10/22 17:28:47;;;;;;;3.50;2.30;;;;;;;;;;6221023;28;20284;-62